Time;durP1;ratioP1;P1;durP2;ratioP2;P2;SDS_P1;SDS_P2;PMS_P1;PMS_P2;Temp;Humidity;BMP_temperature;BMP_pressure;BME280_temperature;BME280_humidity;BME280_pressure;Samples;Min_cycle;Max_cycle;Signal;HPM_P1;HPM_P2
2023/02/16 00:00:20;;;;;;;55.33;40.83;;;;;;;4.40;100.00;102252.41;5080717;28;20116;-78
2023/02/16 00:02:46;;;;;;;55.08;41.13;;;;;;;4.38;100.00;102254.03;5080926;28;20036;-78
2023/02/16 00:05:33;;;;;;;55.75;40.97;;;;;;;4.32;100.00;102254.59;5084354;28;20032;-78
2023/02/16 00:08:00;;;;;;;55.33;41.95;;;;;;;4.33;100.00;102258.16;5082715;28;20034;-78
2023/02/16 00:10:30;;;;;;;53.80;41.15;;;;;;;4.25;100.00;102262.06;5082730;28;20036;-78
2023/02/16 00:15:41;;;;;;;55.25;40.60;;;;;;;4.28;100.00;102249.13;5080739;28;20055;-80
2023/02/16 00:18:18;;;;;;;55.00;40.83;;;;;;;4.18;100.00;102264.38;5084019;28;20382;-79
2023/02/16 00:20:45;;;;;;;54.85;40.85;;;;;;;4.07;100.00;102257.66;5080826;28;20024;-77
2023/02/16 00:23:10;;;;;;;55.65;42.50;;;;;;;4.02;100.00;102248.69;5084347;28;20028;-77
2023/02/16 00:25:35;;;;;;;56.17;41.53;;;;;;;4.06;100.00;102257.59;5081252;28;20112;-79
2023/02/16 00:28:11;;;;;;;56.30;41.65;;;;;;;4.04;100.00;102260.13;5082832;28;20417;-77
2023/02/16 00:30:37;;;;;;;54.00;40.05;;;;;;;4.01;100.00;102253.00;5084006;28;20078;-79
2023/02/16 00:33:12;;;;;;;56.85;41.78;;;;;;;3.95;100.00;102254.41;5086886;28;20027;-78
2023/02/16 00:35:38;;;;;;;53.95;40.42;;;;;;;3.91;100.00;102262.91;5084724;28;20526;-77
2023/02/16 00:38:03;;;;;;;52.10;39.83;;;;;;;3.89;100.00;102264.50;5087459;28;20033;-84
2023/02/16 00:40:29;;;;;;;56.13;41.97;;;;;;;3.80;100.00;102255.38;5086678;28;20035;-84
2023/02/16 00:42:54;;;;;;;55.50;40.60;;;;;;;3.74;100.00;102259.34;5086058;28;20051;-85
2023/02/16 00:45:20;;;;;;;56.92;41.03;;;;;;;3.70;100.00;102253.06;5087683;28;20055;-85
2023/02/16 00:47:49;;;;;;;55.53;41.67;;;;;;;3.69;100.00;102253.88;5084610;28;20107;-83
2023/02/16 00:50:18;;;;;;;55.25;41.60;;;;;;;3.67;100.00;102256.41;5086606;28;20036;-78
2023/02/16 00:52:47;;;;;;;54.90;41.58;;;;;;;3.70;100.00;102252.16;5084973;28;20379;-78
2023/02/16 00:55:15;;;;;;;53.63;41.53;;;;;;;3.68;100.00;102254.69;5084391;28;20048;-81
2023/02/16 00:57:53;;;;;;;55.05;41.50;;;;;;;3.63;100.00;102256.16;5086679;28;20020;-80
2023/02/16 01:00:24;;;;;;;55.65;41.42;;;;;;;3.63;100.00;102246.59;5084700;28;20035;-78
2023/02/16 01:02:52;;;;;;;56.60;41.58;;;;;;;3.62;100.00;102246.50;5087509;28;20031;-78
2023/02/16 01:05:18;;;;;;;56.05;41.78;;;;;;;3.63;100.00;102243.09;5084457;28;20099;-78
2023/02/16 01:13:14;;;;;;;54.05;40.75;;;;;;;3.71;100.00;102243.50;5084280;28;20039;-84
2023/02/16 01:15:41;;;;;;;54.55;40.33;;;;;;;3.73;100.00;102234.91;5087412;28;20032;-78
2023/02/16 01:18:06;;;;;;;55.78;41.20;;;;;;;3.79;100.00;102236.97;5084565;28;20043;-85
2023/02/16 01:20:34;;;;;;;55.25;40.92;;;;;;;3.77;100.00;102241.19;5084883;28;20028;-84
2023/02/16 01:23:00;;;;;;;57.25;41.70;;;;;;;3.76;100.00;102237.69;5085491;28;20043;-82
2023/02/16 01:25:25;;;;;;;54.67;40.83;;;;;;;3.75;100.00;102235.00;5085139;28;20032;-85
2023/02/16 01:27:51;;;;;;;55.53;40.85;;;;;;;3.75;100.00;102238.50;5086698;28;20059;-85
2023/02/16 01:30:19;;;;;;;55.72;41.03;;;;;;;3.69;100.00;102235.56;5084018;28;20027;-81
2023/02/16 01:32:51;;;;;;;55.22;41.55;;;;;;;3.71;100.00;102230.41;5086894;28;20020;-78
2023/02/16 01:35:30;;;;;;;56.03;41.77;;;;;;;3.71;100.00;102233.91;5083211;28;20122;-79
2023/02/16 01:37:55;;;;;;;54.45;39.50;;;;;;;3.74;100.00;102215.81;5085469;28;20266;-78
2023/02/16 01:40:32;;;;;;;55.13;40.80;;;;;;;3.76;100.00;102206.31;5083807;28;20029;-79
2023/02/16 01:43:15;;;;;;;53.78;40.97;;;;;;;3.80;100.00;102209.97;5083824;28;20485;-78
2023/02/16 01:45:44;;;;;;;55.78;40.60;;;;;;;3.88;100.00;102200.81;5086635;28;20032;-79
2023/02/16 01:48:21;;;;;;;56.15;40.53;;;;;;;3.90;100.00;102199.19;5083158;28;20471;-78
2023/02/16 01:50:59;;;;;;;53.97;40.25;;;;;;;3.89;100.00;102191.25;5082909;28;20518;-77
2023/02/16 01:53:36;;;;;;;56.58;41.40;;;;;;;3.92;100.00;102192.34;5085547;28;20035;-78
2023/02/16 01:56:04;;;;;;;53.22;40.25;;;;;;;3.87;100.00;102192.91;5085138;28;20028;-78
2023/02/16 01:58:35;;;;;;;53.95;40.25;;;;;;;3.89;100.00;102201.72;5084362;28;20024;-78
2023/02/16 02:01:00;;;;;;;54.13;39.13;;;;;;;3.78;100.00;102198.53;5084891;28;20032;-78
2023/02/16 02:06:27;;;;;;;55.13;41.83;;;;;;;3.72;100.00;102185.16;5083254;28;20536;-78
2023/02/16 02:08:58;;;;;;;55.10;41.35;;;;;;;3.72;100.00;102188.66;5085571;28;20028;-78
2023/02/16 02:11:31;;;;;;;55.88;40.83;;;;;;;3.73;100.00;102192.16;5083550;28;20033;-78
2023/02/16 02:14:04;;;;;;;54.10;40.75;;;;;;;3.67;100.00;102193.63;5084876;28;20023;-78
2023/02/16 02:16:30;;;;;;;54.90;41.60;;;;;;;3.69;100.00;102180.63;5084346;28;20040;-78
2023/02/16 02:18:55;;;;;;;54.92;42.35;;;;;;;3.65;100.00;102191.75;5084954;28;20024;-79
2023/02/16 02:24:54;;;;;;;55.47;41.97;;;;;;;3.65;100.00;102179.56;5085320;28;20047;-78
2023/02/16 02:27:30;;;;;;;56.70;42.25;;;;;;;3.62;100.00;102175.88;5083047;28;20086;-79
2023/02/16 02:30:02;;;;;;;56.50;43.05;;;;;;;3.61;100.00;102177.63;5084726;28;20469;-79
2023/02/16 02:33:09;;;;;;;53.75;41.10;;;;;;;3.61;100.00;102174.09;5083848;28;20036;-78
2023/02/16 02:35:46;;;;;;;56.72;41.90;;;;;;;3.62;100.00;102175.88;5059273;28;20406;-78
2023/02/16 02:38:44;;;;;;;56.92;42.28;;;;;;;3.60;100.00;102169.69;5085682;28;20053;-79
2023/02/16 02:44:19;;;;;;;55.35;42.03;;;;;;;3.61;100.00;102164.53;5082228;28;20388;-78
2023/02/16 02:46:45;;;;;;;57.22;43.00;;;;;;;3.58;100.00;102156.53;5080669;28;20025;-78
2023/02/16 02:49:10;;;;;;;56.33;42.85;;;;;;;3.55;100.00;102153.72;5085138;28;20066;-79
2023/02/16 02:51:39;;;;;;;57.38;42.67;;;;;;;3.55;100.00;102147.59;5082346;28;20027;-78
2023/02/16 03:03:14;;;;;;;60.25;42.83;;;;;;;3.61;100.00;102150.53;5083431;28;20098;-78
2023/02/16 03:05:44;;;;;;;59.60;43.45;;;;;;;3.54;100.00;102144.09;5082085;28;20031;-79
2023/02/16 03:08:14;;;;;;;56.97;42.33;;;;;;;3.49;100.00;102138.63;5084758;28;20035;-78
2023/02/16 03:13:47;;;;;;;59.42;43.70;;;;;;;3.54;100.00;102141.50;5084185;28;20046;-78
2023/02/16 03:16:20;;;;;;;57.45;43.45;;;;;;;3.56;100.00;102144.19;5081304;28;20043;-78
2023/02/16 03:29:53;;;;;;;58.35;42.97;;;;;;;3.32;100.00;102139.44;5082035;28;20051;-79
2023/02/16 03:32:19;;;;;;;60.63;44.42;;;;;;;3.26;100.00;102126.00;5084864;28;20032;-78
2023/02/16 03:34:45;;;;;;;59.17;44.38;;;;;;;3.32;100.00;102128.97;5080999;28;20031;-79
2023/02/16 03:37:12;;;;;;;59.65;44.75;;;;;;;3.30;100.00;102130.59;5084456;28;20036;-79
2023/02/16 03:42:22;;;;;;;59.90;45.20;;;;;;;3.36;100.00;102123.06;5082118;28;20516;-79
2023/02/16 03:44:47;;;;;;;60.30;44.70;;;;;;;3.36;100.00;102123.06;5084455;28;20035;-79
2023/02/16 03:47:13;;;;;;;61.85;45.70;;;;;;;3.33;100.00;102120.31;5079721;28;20089;-79
2023/02/16 03:49:39;;;;;;;61.15;44.42;;;;;;;3.40;100.00;102117.19;5083485;28;20052;-78
2023/02/16 03:52:04;;;;;;;58.75;44.78;;;;;;;3.41;100.00;102126.84;5081374;28;20078;-79
2023/02/16 03:54:29;;;;;;;61.10;45.70;;;;;;;3.43;100.00;102127.81;5080424;28;20028;-78
2023/02/16 03:56:55;;;;;;;62.50;46.22;;;;;;;3.44;100.00;102124.41;5082773;28;20024;-78
2023/02/16 03:59:20;;;;;;;58.97;44.92;;;;;;;3.52;100.00;102129.16;5079047;28;20034;-78
2023/02/16 04:01:45;;;;;;;62.15;45.40;;;;;;;3.62;100.00;102129.72;5083752;28;20027;-79
2023/02/16 04:04:11;;;;;;;61.13;44.65;;;;;;;3.61;100.00;102138.38;5077759;28;20086;-79
2023/02/16 04:06:36;;;;;;;60.70;45.15;;;;;;;3.56;100.00;102131.13;5082454;28;20020;-79
2023/02/16 04:09:02;;;;;;;59.83;45.85;;;;;;;3.56;100.00;102138.97;5081590;28;20060;-79
2023/02/16 04:14:11;;;;;;;61.25;46.13;;;;;;;3.54;100.00;102135.34;5080361;28;20564;-79
2023/02/16 04:16:37;;;;;;;60.17;45.13;;;;;;;3.50;100.00;102123.84;5082320;28;20064;-80
2023/02/16 04:19:02;;;;;;;62.33;46.38;;;;;;;3.47;100.00;102140.25;5081399;28;20024;-79
2023/02/16 04:21:28;;;;;;;63.78;46.55;;;;;;;3.41;100.00;102126.84;5081144;28;20150;-78
2023/02/16 04:23:53;;;;;;;61.53;46.42;;;;;;;3.40;100.00;102134.63;5082654;28;20039;-83
2023/02/16 04:26:18;;;;;;;62.95;46.13;;;;;;;3.42;100.00;102130.34;5080759;28;20094;-84
2023/02/16 04:28:44;;;;;;;61.10;45.20;;;;;;;3.46;100.00;102141.06;5083604;28;20028;-85
2023/02/16 04:31:09;;;;;;;62.67;46.40;;;;;;;3.49;100.00;102132.50;5080371;28;20033;-78
2023/02/16 04:33:34;;;;;;;61.00;46.67;;;;;;;3.49;100.00;102138.63;5082453;28;20037;-78
2023/02/16 04:36:00;;;;;;;61.58;45.58;;;;;;;3.53;100.00;102149.25;5081529;28;20032;-83
2023/02/16 04:38:25;;;;;;;61.95;45.75;;;;;;;3.47;100.00;102136.75;5081004;28;20028;-86
2023/02/16 04:40:50;;;;;;;62.30;45.42;;;;;;;3.46;100.00;102145.41;5081913;28;20471;-85
2023/02/16 04:43:16;;;;;;;60.38;44.83;;;;;;;3.55;100.00;102137.16;5078574;28;20028;-78
2023/02/16 04:45:41;;;;;;;59.33;45.35;;;;;;;3.58;100.00;102127.78;5082944;28;20035;-87
2023/02/16 04:48:07;;;;;;;58.85;44.65;;;;;;;3.70;100.00;102131.84;5080924;28;20036;-80
2023/02/16 04:50:32;;;;;;;58.38;43.72;;;;;;;3.71;100.00;102144.97;5043267;28;1107296;-79
2023/02/16 04:52:57;;;;;;;58.58;45.47;;;;;;;3.70;100.00;102132.75;5081739;28;20578;-82
2023/02/16 04:55:23;;;;;;;58.92;44.65;;;;;;;3.72;100.00;102143.28;5081054;28;20116;-78
2023/02/16 04:57:49;;;;;;;59.28;44.47;;;;;;;3.73;100.00;102132.91;5083971;28;20101;-82
2023/02/16 05:00:15;;;;;;;58.80;43.97;;;;;;;3.78;100.00;102136.66;5080777;28;20028;-81
2023/02/16 05:02:40;;;;;;;59.03;44.20;;;;;;;3.78;100.00;102141.00;5083477;28;20110;-79
2023/02/16 05:05:06;;;;;;;60.88;45.47;;;;;;;3.79;100.00;102138.44;5081280;28;20024;-78
2023/02/16 05:07:31;;;;;;;58.20;44.17;;;;;;;3.81;100.00;102136.81;5082110;28;20039;-79
2023/02/16 05:09:56;;;;;;;61.17;45.53;;;;;;;3.81;100.00;102131.56;5082537;28;20059;-79
2023/02/16 05:15:06;;;;;;;57.10;43.53;;;;;;;3.84;100.00;102123.91;5081961;28;20047;-78
2023/02/16 05:17:31;;;;;;;57.15;42.67;;;;;;;3.84;100.00;102116.06;5085579;28;20029;-78
2023/02/16 05:19:58;;;;;;;58.42;43.20;;;;;;;3.87;100.00;102122.25;5085981;28;20016;-78
2023/02/16 05:22:25;;;;;;;58.75;43.95;;;;;;;3.93;100.00;102127.81;5084359;28;20040;-78
2023/02/16 05:24:50;;;;;;;55.65;42.70;;;;;;;3.97;100.00;102127.16;5086751;28;20471;-79
2023/02/16 05:27:22;;;;;;;55.90;43.50;;;;;;;3.96;100.00;102114.88;5083612;28;20028;-78
2023/02/16 05:29:47;;;;;;;56.97;42.95;;;;;;;4.01;100.00;102119.53;5083674;28;20090;-79
2023/02/16 05:32:13;;;;;;;56.50;42.15;;;;;;;4.03;100.00;102127.47;5086763;28;20442;-78
2023/02/16 05:34:38;;;;;;;56.88;41.88;;;;;;;4.06;100.00;102138.09;5083977;28;20127;-78
2023/02/16 05:37:04;;;;;;;58.83;43.97;;;;;;;4.12;100.00;102135.81;5085559;28;20017;-79
2023/02/16 05:39:30;;;;;;;56.78;43.35;;;;;;;4.09;100.00;102106.88;5085135;28;20028;-78
2023/02/16 05:41:56;;;;;;;57.65;42.88;;;;;;;4.10;100.00;102107.75;5083385;28;20024;-78
2023/02/16 05:44:21;;;;;;;56.97;42.47;;;;;;;4.09;100.00;102100.72;5086791;28;20043;-78
2023/02/16 05:46:47;;;;;;;56.00;41.72;;;;;;;4.10;100.00;102098.16;5082202;28;20033;-78
2023/02/16 05:49:13;;;;;;;55.22;41.25;;;;;;;4.16;100.00;102116.78;5086275;28;20070;-78
2023/02/16 05:51:38;;;;;;;57.50;42.05;;;;;;;4.17;100.00;102109.84;5084362;28;20040;-79
2023/02/16 05:54:05;;;;;;;56.30;42.33;;;;;;;4.20;100.00;102128.34;5085300;28;20036;-79
2023/02/16 05:56:31;;;;;;;55.63;41.95;;;;;;;4.19;100.00;102129.16;5085180;28;20066;-78
2023/02/16 05:58:59;;;;;;;56.95;41.42;;;;;;;4.19;100.00;102114.34;5084481;28;20173;-85
2023/02/16 06:01:25;;;;;;;56.67;42.30;;;;;;;4.19;100.00;102114.34;5086006;28;20060;-84
2023/02/16 06:03:51;;;;;;;55.15;40.90;;;;;;;4.26;100.00;102119.91;5083509;28;20106;-79
2023/02/16 06:06:16;;;;;;;55.05;41.45;;;;;;;4.21;100.00;102121.38;5086972;28;20471;-85
2023/02/16 06:08:42;;;;;;;56.33;41.45;;;;;;;4.22;100.00;102112.69;5083133;28;20043;-85
2023/02/16 06:13:54;;;;;;;57.33;42.25;;;;;;;4.23;100.00;102104.03;5083291;28;20039;-85
2023/02/16 06:16:19;;;;;;;54.72;40.63;;;;;;;4.22;100.00;102091.75;5086630;28;20028;-79
2023/02/16 06:18:44;;;;;;;55.08;40.75;;;;;;;4.24;100.00;102108.44;5082812;28;20036;-85
2023/02/16 06:21:10;;;;;;;54.85;40.80;;;;;;;4.26;100.00;102099.84;5085681;28;20035;-78
2023/02/16 06:23:35;;;;;;;54.60;40.45;;;;;;;4.30;100.00;102106.16;5084236;28;20027;-85
2023/02/16 06:26:00;;;;;;;54.92;40.28;;;;;;;4.35;100.00;102099.41;5084216;28;20075;-79
2023/02/16 06:28:26;;;;;;;55.10;41.60;;;;;;;4.33;100.00;102101.94;5082957;28;20036;-78
2023/02/16 06:30:51;;;;;;;54.92;40.83;;;;;;;4.31;100.00;102098.38;5082752;28;20032;-78
2023/02/16 06:33:16;;;;;;;55.35;40.65;;;;;;;4.33;100.00;102119.38;5085712;28;20474;-79
2023/02/16 06:35:42;;;;;;;56.13;41.65;;;;;;;4.29;100.00;102131.41;5085997;28;20557;-77
2023/02/16 06:38:07;;;;;;;52.92;39.75;;;;;;;4.32;100.00;102130.66;5083051;28;20103;-81
2023/02/16 06:40:32;;;;;;;53.72;39.72;;;;;;;4.32;100.00;102128.94;5081597;28;20604;-80
2023/02/16 06:42:58;;;;;;;52.00;39.97;;;;;;;4.34;100.00;102134.28;5080874;28;20506;-80
2023/02/16 06:45:23;;;;;;;53.15;39.65;;;;;;;4.36;100.00;102128.28;5083087;28;20034;-79
2023/02/16 06:47:48;;;;;;;53.80;39.78;;;;;;;4.34;100.00;102126.44;5082083;28;20020;-79
2023/02/16 06:50:14;;;;;;;56.40;41.28;;;;;;;4.35;100.00;102130.81;5081708;28;20540;-79
2023/02/16 06:52:39;;;;;;;56.20;40.53;;;;;;;4.35;100.00;102146.53;5079895;28;20524;-78
2023/02/16 06:55:05;;;;;;;56.10;40.40;;;;;;;4.38;100.00;102144.06;5090532;28;20097;-79
2023/02/16 06:57:30;;;;;;;54.42;40.72;;;;;;;4.41;100.00;102146.84;5093154;28;20031;-79
2023/02/16 06:59:56;;;;;;;54.35;40.63;;;;;;;4.44;100.00;102149.63;5092242;28;20489;-79
2023/02/16 07:02:21;;;;;;;55.75;39.83;;;;;;;4.46;100.00;102147.97;5092964;28;20028;-76
2023/02/16 07:04:47;;;;;;;53.25;39.22;;;;;;;4.51;100.00;102148.19;5091360;28;20028;-75
2023/02/16 07:07:12;;;;;;;51.85;39.00;;;;;;;4.48;100.00;102146.31;5092265;28;20157;-77
2023/02/16 07:09:38;;;;;;;52.88;39.20;;;;;;;4.46;100.00;102144.47;5090923;28;20110;-77
2023/02/16 07:12:04;;;;;;;55.08;41.45;;;;;;;4.46;100.00;102155.81;5092524;28;20035;-76
2023/02/16 07:14:30;;;;;;;53.00;39.90;;;;;;;4.46;100.00;102141.84;5092225;28;20513;-80
2023/02/16 07:16:58;;;;;;;54.35;40.25;;;;;;;4.45;100.00;102148.78;5091211;28;20395;-76
2023/02/16 07:19:24;;;;;;;54.83;40.45;;;;;;;4.48;100.00;102148.06;5071244;28;20036;-78
2023/02/16 07:21:49;;;;;;;53.80;39.97;;;;;;;4.49;100.00;102155.09;5089846;28;20029;-78
2023/02/16 07:24:15;;;;;;;54.55;39.78;;;;;;;4.52;100.00;102143.03;5091292;28;20077;-76
2023/02/16 07:26:40;;;;;;;52.20;39.22;;;;;;;4.60;100.00;102148.69;5089055;28;20493;-79
2023/02/16 07:29:05;;;;;;;51.95;39.30;;;;;;;4.63;100.00;102147.91;5091852;28;20032;-80
2023/02/16 07:31:31;;;;;;;54.20;41.20;;;;;;;4.68;100.00;102149.03;5090979;28;20031;-77
2023/02/16 07:33:56;;;;;;;52.03;38.28;;;;;;;4.71;100.00;102154.44;5092030;28;20047;-78
2023/02/16 07:36:21;;;;;;;53.08;39.90;;;;;;;4.72;100.00;102158.84;5073531;28;20028;-79
2023/02/16 07:38:47;;;;;;;51.80;38.65;;;;;;;4.76;100.00;102155.56;5072787;28;20038;-79
2023/02/16 07:41:12;;;;;;;51.28;38.88;;;;;;;4.78;100.00;102148.66;5090726;28;20452;-79
2023/02/16 07:43:38;;;;;;;52.67;39.47;;;;;;;4.83;100.00;102152.41;5073865;28;20462;-77
2023/02/16 07:46:04;;;;;;;50.65;38.25;;;;;;;4.85;100.00;102142.91;5090773;28;20081;-75
2023/02/16 07:48:29;;;;;;;52.60;39.80;;;;;;;4.91;100.00;102154.50;5091762;28;20081;-77
2023/02/16 07:50:55;;;;;;;51.33;38.47;;;;;;;4.96;100.00;102161.75;5091509;28;20028;-79
2023/02/16 07:53:20;;;;;;;50.53;37.67;;;;;;;4.99;100.00;102161.91;5091965;28;20060;-76
2023/02/16 07:55:45;;;;;;;52.05;38.92;;;;;;;5.01;100.00;102156.72;5091215;28;20115;-76
2023/02/16 07:58:26;;;;;;;50.80;36.58;;;;;;;5.03;100.00;102162.97;5092338;28;20016;-76
2023/02/16 08:01:13;;;;;;;50.88;37.78;;;;;;;5.09;100.00;102160.63;5089410;28;20482;-76
2023/02/16 08:03:39;;;;;;;51.20;37.38;;;;;;;5.09;100.00;102165.88;5091472;28;20028;-77
2023/02/16 08:06:05;;;;;;;50.25;36.83;;;;;;;5.04;100.00;102149.03;5091124;28;20028;-78
2023/02/16 08:08:31;;;;;;;49.70;36.78;;;;;;;5.07;100.00;102147.44;5090061;28;20103;-75
2023/02/16 08:10:56;;;;;;;48.45;35.38;;;;;;;5.12;100.00;102152.91;5089814;28;20131;-77
2023/02/16 08:13:22;;;;;;;49.63;36.78;;;;;;;5.14;100.00;102167.00;5091683;28;20046;-77
2023/02/16 08:15:48;;;;;;;49.47;37.55;;;;;;;5.11;100.00;102159.00;5091598;28;20036;-77
2023/02/16 08:18:14;;;;;;;49.42;37.28;;;;;;;5.12;100.00;102155.53;5091590;28;20036;-80
2023/02/16 08:20:39;;;;;;;51.03;37.97;;;;;;;5.19;100.00;102164.59;5090825;28;20021;-80
2023/02/16 08:23:06;;;;;;;47.22;35.53;;;;;;;5.23;100.00;102172.66;5090215;28;20174;-80
2023/02/16 08:25:38;;;;;;;49.28;36.45;;;;;;;5.27;100.00;102175.44;5091628;28;20527;-79
2023/02/16 08:28:03;;;;;;;49.38;37.25;;;;;;;5.31;100.00;102164.28;5091464;28;20024;-77
2023/02/16 08:30:29;;;;;;;48.08;36.33;;;;;;;5.34;100.00;102174.91;5090860;28;20346;-80
2023/02/16 08:32:59;;;;;;;47.85;36.30;;;;;;;5.39;100.00;102182.16;5090132;28;20612;-80
2023/02/16 08:35:26;;;;;;;50.05;36.20;;;;;;;5.43;100.00;102177.94;5087354;28;20047;-80
2023/02/16 08:37:51;;;;;;;47.58;35.90;;;;;;;5.46;100.00;102180.72;5091712;28;20028;-78
2023/02/16 08:40:16;;;;;;;49.15;36.17;;;;;;;5.50;100.00;102182.66;5091042;28;20427;-78
2023/02/16 08:42:42;;;;;;;48.83;35.42;;;;;;;5.53;100.00;102177.56;5090842;28;20125;-80
2023/02/16 08:45:08;;;;;;;47.45;36.55;;;;;;;5.61;100.00;102182.25;5090761;28;20111;-81
2023/02/16 08:47:35;;;;;;;48.28;35.70;;;;;;;5.69;100.00;102173.88;5090368;28;20031;-81
2023/02/16 08:50:00;;;;;;;46.15;34.58;;;;;;;5.79;100.00;102182.19;5091199;28;20097;-81
2023/02/16 08:52:26;;;;;;;47.45;35.13;;;;;;;5.85;100.00;102182.47;5095186;28;20020;-81
2023/02/16 08:54:51;;;;;;;46.88;34.95;;;;;;;5.92;100.00;102182.81;5094338;28;20118;-81
2023/02/16 08:57:17;;;;;;;45.72;34.67;;;;;;;5.95;100.00;102187.31;5093680;28;20622;-81
2023/02/16 08:59:42;;;;;;;49.33;36.67;;;;;;;5.98;100.00;102191.84;5093923;28;20115;-80
2023/02/16 09:02:09;;;;;;;46.67;34.92;;;;;;;6.00;100.00;102192.78;5095458;28;20127;-81
2023/02/16 09:04:35;;;;;;;48.58;35.08;;;;;;;6.08;100.00;102194.03;5094957;28;20020;-82
2023/02/16 09:07:01;;;;;;;47.03;34.95;;;;;;;6.14;100.00;102196.91;5094447;28;20012;-81
2023/02/16 09:09:26;;;;;;;45.75;35.28;;;;;;;6.19;100.00;102205.91;5090994;28;20021;-81
2023/02/16 09:11:52;;;;;;;45.78;34.60;;;;;;;6.24;100.00;102212.25;5084738;28;20463;-78
2023/02/16 09:14:18;;;;;;;45.03;32.80;;;;;;;6.26;100.00;102217.56;5093031;28;20099;-77
2023/02/16 09:16:44;;;;;;;45.53;33.70;;;;;;;6.31;100.00;102216.06;5085522;28;20119;-81
2023/02/16 09:19:15;;;;;;;45.45;33.50;;;;;;;6.28;100.00;102211.56;5084428;28;20028;-87
2023/02/16 09:21:41;;;;;;;45.92;34.38;;;;;;;6.30;100.00;102222.13;5087852;28;20031;-84
2023/02/16 09:24:08;;;;;;;46.05;34.00;;;;;;;6.25;100.00;102213.16;5084094;28;20446;-83
2023/02/16 09:26:37;;;;;;;45.42;34.17;;;;;;;6.28;100.00;102211.56;5078116;28;20127;-87
2023/02/16 09:29:04;;;;;;;46.20;35.03;;;;;;;6.18;100.00;102214.63;5083704;28;20047;-80
2023/02/16 09:31:31;;;;;;;47.38;34.97;;;;;;;5.94;100.00;102212.66;5079954;28;20046;-79
2023/02/16 09:34:01;;;;;;;49.00;36.15;;;;;;;5.72;100.00;102216.03;5086847;28;20101;-77
2023/02/16 09:36:27;;;;;;;49.40;37.15;;;;;;;5.58;100.00;102214.50;5085139;28;20028;-78
2023/02/16 09:38:53;;;;;;;47.53;37.15;;;;;;;5.43;100.00;102201.53;5086931;28;20050;-79
2023/02/16 09:41:36;;;;;;;48.20;37.08;;;;;;;5.39;100.00;102197.91;5094368;28;20533;-81
2023/02/16 09:44:19;;;;;;;;;;;;;;;5.26;100.00;102194.59;5091256;28;20039;-92
2023/02/16 09:46:45;;;;;;;;;;;;;;;5.24;100.00;102189.28;5087156;28;19985;-81
2023/02/16 09:49:33;;;;;;;51.78;40.58;;;;;;;5.28;100.00;102182.47;5085897;28;19959;-86
2023/02/16 09:52:25;;;;;;;53.42;39.97;;;;;;;5.29;100.00;102187.81;5082868;28;20042;-82
2023/02/16 09:54:58;;;;;;;55.17;42.22;;;;;;;5.32;100.00;102205.41;5083408;28;20107;-85
2023/02/16 09:57:45;;;;;;;57.50;43.13;;;;;;;5.32;100.00;102203.66;5083678;28;20017;-86
2023/02/16 10:00:32;;;;;;;56.25;43.63;;;;;;;5.28;100.00;102206.97;5085420;28;20035;-85
2023/02/16 10:03:24;;;;;;;56.47;42.42;;;;;;;5.30;100.00;102202.72;5084134;28;20479;-81
2023/02/16 10:06:13;;;;;;;53.30;40.10;;;;;;;5.30;100.00;102202.72;5093893;28;20051;-81
2023/02/16 10:08:52;;;;;;;54.17;42.00;;;;;;;5.22;100.00;102199.69;5092089;28;20023;-82
2023/02/16 10:11:37;;;;;;;58.58;43.58;;;;;;;5.17;100.00;102201.22;5093367;28;20073;-81
2023/02/16 10:14:29;;;;;;;55.60;43.53;;;;;;;5.12;100.00;102200.09;5093451;28;20031;-81
2023/02/16 10:17:00;;;;;;;57.95;43.83;;;;;;;5.14;100.00;102211.56;5093627;28;20471;-80
2023/02/16 10:19:32;;;;;;;57.55;44.17;;;;;;;5.18;100.00;102203.00;5091402;28;20035;-82
2023/02/16 10:22:03;;;;;;;57.22;45.10;;;;;;;5.19;100.00;102204.81;5093476;28;20032;-81
2023/02/16 10:24:34;;;;;;;60.75;46.00;;;;;;;5.21;100.00;102204.88;5093667;28;20024;-83
2023/02/16 10:27:09;;;;;;;60.15;46.03;;;;;;;5.29;100.00;102203.53;5092959;28;20085;-82
2023/02/16 10:29:35;;;;;;;63.95;47.22;;;;;;;5.39;100.00;102199.63;5090616;28;20479;-81
2023/02/16 10:32:06;;;;;;;57.88;45.88;;;;;;;5.39;100.00;102192.66;5091340;28;20031;-85
2023/02/16 10:35:05;;;;;;;64.15;46.63;;;;;;;5.42;100.00;102197.16;5092501;28;20031;-85
2023/02/16 10:37:47;;;;;;;59.33;45.08;;;;;;;5.42;100.00;102199.78;5091290;28;20058;-85
2023/02/16 10:40:46;;;;;;;56.30;43.80;;;;;;;5.51;100.00;102201.94;5093501;28;20024;-86
2023/02/16 10:43:20;;;;;;;57.28;44.65;;;;;;;5.46;100.00;102209.59;5091111;28;20330;-85
2023/02/16 10:45:51;;;;;;;56.45;43.63;;;;;;;5.48;100.00;102201.78;5093431;28;20070;-84
2023/02/16 10:48:19;;;;;;;57.75;44.38;;;;;;;5.47;100.00;102208.72;5091430;28;20464;-84
2023/02/16 10:50:51;;;;;;;58.58;44.67;;;;;;;5.47;100.00;102210.47;5092960;28;20055;-84
2023/02/16 10:53:38;;;;;;;55.78;45.03;;;;;;;5.45;100.00;102205.16;5092761;28;20028;-85
2023/02/16 10:56:32;;;;;;;58.58;45.40;;;;;;;5.45;100.00;102226.13;5084669;28;20040;-85
2023/02/16 10:59:00;;;;;;;57.40;44.35;;;;;;;5.39;100.00;102228.47;5083830;28;20029;-85
2023/02/16 11:01:37;;;;;;;57.97;44.03;;;;;;;5.36;100.00;102234.47;5081467;28;20028;-84
2023/02/16 11:04:03;;;;;;;59.55;45.30;;;;;;;5.35;100.00;102216.03;5091907;28;20024;-83
2023/02/16 11:06:29;;;;;;;63.83;47.15;;;;;;;5.36;100.00;102207.34;5092617;28;20024;-87
2023/02/16 11:08:58;;;;;;;61.35;47.05;;;;;;;5.36;100.00;102215.22;5092413;28;20020;-88
2023/02/16 11:11:29;;;;;;;64.35;48.67;;;;;;;5.40;100.00;102210.19;5090582;28;20028;-88
2023/02/16 11:14:02;;;;;;;66.60;50.00;;;;;;;5.45;100.00;102210.41;5089800;28;20059;-85
2023/02/16 11:16:28;;;;;;;68.53;49.60;;;;;;;5.47;100.00;102198.25;5090980;28;20032;-84
2023/02/16 11:19:02;;;;;;;75.80;54.05;;;;;;;5.55;100.00;102193.38;5092068;28;20055;-80
2023/02/16 11:21:46;;;;;;;75.82;54.67;;;;;;;5.54;100.00;102186.31;5092195;28;20367;-79
2023/02/16 11:24:23;;;;;;;75.32;53.85;;;;;;;5.61;100.00;102183.16;5089673;28;20398;-79
2023/02/16 11:27:05;;;;;;;76.85;54.95;;;;;;;5.63;100.00;102185.84;5089257;28;20039;-81
2023/02/16 11:29:31;;;;;;;78.25;54.83;;;;;;;5.69;100.00;102191.38;5082909;28;20063;-81
2023/02/16 11:31:57;;;;;;;78.68;53.97;;;;;;;5.82;100.00;102183.22;5084598;28;20028;-80
2023/02/16 11:34:55;;;;;;;75.63;53.08;;;;;;;5.94;100.00;102178.53;5081431;28;20025;-80
2023/02/16 11:37:32;;;;;;;76.18;53.67;;;;;;;6.24;100.00;102186.00;5069122;28;20097;-79
2023/02/16 11:40:14;;;;;;;73.53;53.15;;;;;;;6.27;100.00;102174.72;5081223;28;20025;-80
2023/02/16 11:42:46;;;;;;;68.10;50.83;;;;;;;6.21;100.00;102174.47;5082694;28;20031;-80
2023/02/16 11:45:25;;;;;;;67.50;51.10;;;;;;;6.19;100.00;102171.78;5082768;28;20027;-82
2023/02/16 11:48:04;;;;;;;68.50;49.80;;;;;;;6.16;100.00;102169.03;5084003;28;20042;-82
2023/02/16 11:50:32;;;;;;;65.75;48.55;;;;;;;6.23;100.00;102168.47;5080803;28;20071;-82
2023/02/16 11:53:13;;;;;;;64.97;50.00;;;;;;;6.41;100.00;102159.56;5084562;28;20028;-82
2023/02/16 11:55:42;;;;;;;68.05;49.17;;;;;;;6.62;100.00;102159.56;5082340;28;20375;-81
2023/02/16 11:58:26;;;;;;;60.53;46.15;;;;;;;6.74;100.00;102149.56;5089404;28;20035;-81
2023/02/16 12:01:29;;;;;;;63.85;48.38;;;;;;;6.86;100.00;102154.41;5091328;28;20485;-81
2023/02/16 12:04:13;;;;;;;57.53;44.13;;;;;;;6.90;100.00;102147.53;5090835;28;20028;-82
2023/02/16 12:06:57;;;;;;;56.88;41.05;;;;;;;6.98;100.00;102152.28;5090604;28;20032;-82
2023/02/16 12:09:45;;;;;;;55.22;42.05;;;;;;;7.21;100.00;102144.41;5092017;28;20024;-80
2023/02/16 12:12:40;;;;;;;56.92;42.28;;;;;;;7.60;100.00;102145.84;5091202;28;20047;-82